sensor_id;sensor_type;location;lat;lon;timestamp;pressure;altitude;pressure_sealevel;temperature;humidity
79230;BME280;68663;49.122;17.544;2023-04-01T00:00:52;97811.47;;;22.33;51.03
79230;BME280;68663;49.122;17.544;2023-04-01T00:03:19;97818.03;;;22.30;50.86
79230;BME280;68663;49.122;17.544;2023-04-01T00:05:45;97816.91;;;22.27;51.07
79230;BME280;68663;49.122;17.544;2023-04-01T00:08:11;97820.63;;;22.24;51.25
79230;BME280;68663;49.122;17.544;2023-04-01T00:10:36;97819.84;;;22.23;51.31
79230;BME280;68663;49.122;17.544;2023-04-01T00:13:01;97811.59;;;22.29;50.93
79230;BME280;68663;49.122;17.544;2023-04-01T00:15:27;97823.97;;;22.32;50.77
79230;BME280;68663;49.122;17.544;2023-04-01T00:17:52;97821.03;;;22.35;50.73
79230;BME280;68663;49.122;17.544;2023-04-01T00:20:19;97829.03;;;22.37;50.78
79230;BME280;68663;49.122;17.544;2023-04-01T00:22:45;97817.91;;;22.33;51.26
79230;BME280;68663;49.122;17.544;2023-04-01T00:25:10;97822.88;;;22.29;51.39
79230;BME280;68663;49.122;17.544;2023-04-01T00:27:36;97820.50;;;22.28;51.57
79230;BME280;68663;49.122;17.544;2023-04-01T00:30:02;97819.38;;;22.25;51.76
79230;BME280;68663;49.122;17.544;2023-04-01T00:32:28;97826.91;;;22.28;51.29
79230;BME280;68663;49.122;17.544;2023-04-01T00:34:54;97825.22;;;22.31;50.95
79230;BME280;68663;49.122;17.544;2023-04-01T00:37:20;97823.53;;;22.33;50.90
79230;BME280;68663;49.122;17.544;2023-04-01T00:39:46;97825.88;;;22.35;51.02
79230;BME280;68663;49.122;17.544;2023-04-01T00:42:12;97829.16;;;22.33;51.46
79230;BME280;68663;49.122;17.544;2023-04-01T00:44:38;97823.66;;;22.30;51.35
79230;BME280;68663;49.122;17.544;2023-04-01T00:47:03;97836.16;;;22.29;51.42
79230;BME280;68663;49.122;17.544;2023-04-01T00:49:32;97838.84;;;22.32;51.18
79230;BME280;68663;49.122;17.544;2023-04-01T00:52:01;97840.75;;;22.35;50.93
79230;BME280;68663;49.122;17.544;2023-04-01T00:54:28;97836.69;;;22.36;50.99
79230;BME280;68663;49.122;17.544;2023-04-01T00:56:59;97828.91;;;22.40;50.86
79230;BME280;68663;49.122;17.544;2023-04-01T00:59:46;97829.25;;;22.42;50.79
79230;BME280;68663;49.122;17.544;2023-04-01T01:02:14;97843.00;;;22.40;51.00
79230;BME280;68663;49.122;17.544;2023-04-01T01:04:40;97835.44;;;22.37;51.92
79230;BME280;68663;49.122;17.544;2023-04-01T01:10:14;97831.63;;;22.31;51.60
79230;BME280;68663;49.122;17.544;2023-04-01T01:15:22;97839.50;;;22.36;51.01
79230;BME280;68663;49.122;17.544;2023-04-01T01:20:42;97845.81;;;22.40;50.77
79230;BME280;68663;49.122;17.544;2023-04-01T01:37:21;97839.38;;;22.40;51.16
79230;BME280;68663;49.122;17.544;2023-04-01T01:39:52;97834.88;;;22.42;51.03
79230;BME280;68663;49.122;17.544;2023-04-01T01:42:20;97835.19;;;22.44;51.00
79230;BME280;68663;49.122;17.544;2023-04-01T01:44:48;97827.88;;;22.47;50.95
79230;BME280;68663;49.122;17.544;2023-04-01T01:47:16;97830.34;;;22.45;51.13
79230;BME280;68663;49.122;17.544;2023-04-01T01:49:44;97829.69;;;22.41;51.67
79230;BME280;68663;49.122;17.544;2023-04-01T01:52:11;97837.03;;;22.38;51.88
79230;BME280;68663;49.122;17.544;2023-04-01T01:54:48;97825.09;;;22.34;51.90
79230;BME280;68663;49.122;17.544;2023-04-01T01:57:14;97835.56;;;22.34;51.61
79230;BME280;68663;49.122;17.544;2023-04-01T01:59:41;97836.25;;;22.38;51.29
79230;BME280;68663;49.122;17.544;2023-04-01T02:02:09;97833.75;;;22.40;51.21
79230;BME280;68663;49.122;17.544;2023-04-01T02:04:40;97829.25;;;22.42;51.03
79230;BME280;68663;49.122;17.544;2023-04-01T02:07:15;97829.56;;;22.44;51.18
79230;BME280;68663;49.122;17.544;2023-04-01T02:09:42;97830.34;;;22.45;51.08
79230;BME280;68663;49.122;17.544;2023-04-01T02:12:11;97824.28;;;22.46;51.23
79230;BME280;68663;49.122;17.544;2023-04-01T02:14:54;97819.75;;;22.49;50.96
79230;BME280;68663;49.122;17.544;2023-04-01T02:17:24;97818.97;;;22.48;51.48
79230;BME280;68663;49.122;17.544;2023-04-01T02:19:54;97819.88;;;22.45;51.73
79230;BME280;68663;49.122;17.544;2023-04-01T02:22:27;97815.16;;;22.42;51.77
79230;BME280;68663;49.122;17.544;2023-04-01T02:24:57;97816.06;;;22.39;51.83
79230;BME280;68663;49.122;17.544;2023-04-01T02:27:23;97809.53;;;22.42;51.71
79230;BME280;68663;49.122;17.544;2023-04-01T02:29:50;97809.06;;;22.44;51.39
79230;BME280;68663;49.122;17.544;2023-04-01T02:32:16;97808.16;;;22.47;51.28
79230;BME280;68663;49.122;17.544;2023-04-01T02:34:43;97810.84;;;22.50;51.00
79230;BME280;68663;49.122;17.544;2023-04-01T02:37:08;97811.97;;;22.53;51.19
79230;BME280;68663;49.122;17.544;2023-04-01T02:39:33;97799.59;;;22.50;51.65
79230;BME280;68663;49.122;17.544;2023-04-01T02:41:59;97817.41;;;22.47;51.53
79230;BME280;68663;49.122;17.544;2023-04-01T02:44:24;97811.44;;;22.45;51.90
79230;BME280;68663;49.122;17.544;2023-04-01T02:46:50;97813.47;;;22.45;52.02
79230;BME280;68663;49.122;17.544;2023-04-01T02:49:15;97813.34;;;22.48;51.63
79230;BME280;68663;49.122;17.544;2023-04-01T02:51:41;97816.47;;;22.50;51.39
79230;BME280;68663;49.122;17.544;2023-04-01T02:54:06;97805.53;;;22.52;51.24
79230;BME280;68663;49.122;17.544;2023-04-01T02:56:31;97817.16;;;22.54;51.24
79230;BME280;68663;49.122;17.544;2023-04-01T02:58:57;97812.31;;;22.55;51.34
79230;BME280;68663;49.122;17.544;2023-04-01T03:01:22;97828.75;;;22.56;51.28
79230;BME280;68663;49.122;17.544;2023-04-01T03:03:48;97824.72;;;22.58;51.28
79230;BME280;68663;49.122;17.544;2023-04-01T03:06:15;97822.00;;;22.54;51.74
79230;BME280;68663;49.122;17.544;2023-04-01T03:08:41;97828.53;;;22.51;51.86
79230;BME280;68663;49.122;17.544;2023-04-01T03:11:06;97829.44;;;22.48;51.83
79230;BME280;68663;49.122;17.544;2023-04-01T03:13:32;97828.66;;;22.47;51.93
79230;BME280;68663;49.122;17.544;2023-04-01T03:15:58;97828.00;;;22.43;51.83
79230;BME280;68663;49.122;17.544;2023-04-01T03:18:23;97829.56;;;22.44;51.88
79230;BME280;68663;49.122;17.544;2023-04-01T03:20:49;97827.66;;;22.41;51.90
79230;BME280;68663;49.122;17.544;2023-04-01T03:23:15;97833.63;;;22.43;51.61
79230;BME280;68663;49.122;17.544;2023-04-01T03:25:42;97830.69;;;22.47;51.66
79230;BME280;68663;49.122;17.544;2023-04-01T03:28:08;97825.06;;;22.47;51.40
79230;BME280;68663;49.122;17.544;2023-04-01T03:30:33;97816.47;;;22.50;51.31
79230;BME280;68663;49.122;17.544;2023-04-01T03:32:59;97820.41;;;22.53;51.09
79230;BME280;68663;49.122;17.544;2023-04-01T03:35:26;97819.28;;;22.50;51.63
79230;BME280;68663;49.122;17.544;2023-04-01T03:37:52;97820.22;;;22.47;51.47
79230;BME280;68663;49.122;17.544;2023-04-01T03:40:17;97821.31;;;22.50;51.40
79230;BME280;68663;49.122;17.544;2023-04-01T03:42:43;97826.03;;;22.53;51.56
79230;BME280;68663;49.122;17.544;2023-04-01T03:45:09;97826.16;;;22.49;51.86
79230;BME280;68663;49.122;17.544;2023-04-01T03:47:37;97831.47;;;22.47;51.86
79230;BME280;68663;49.122;17.544;2023-04-01T03:50:03;97833.06;;;22.48;51.39
79230;BME280;68663;49.122;17.544;2023-04-01T03:52:29;97835.75;;;22.52;51.15
79230;BME280;68663;49.122;17.544;2023-04-01T03:54:54;97836.06;;;22.54;51.17
79230;BME280;68663;49.122;17.544;2023-04-01T03:57:20;97835.75;;;22.52;51.78
79230;BME280;68663;49.122;17.544;2023-04-01T03:59:45;97835.88;;;22.48;51.66
79230;BME280;68663;49.122;17.544;2023-04-01T04:02:11;97839.59;;;22.45;51.94
79230;BME280;68663;49.122;17.544;2023-04-01T04:04:36;97832.72;;;22.46;51.39
79230;BME280;68663;49.122;17.544;2023-04-01T04:07:02;97832.59;;;22.50;51.43
79230;BME280;68663;49.122;17.544;2023-04-01T04:09:27;97838.56;;;22.52;51.35
79230;BME280;68663;49.122;17.544;2023-04-01T04:11:54;97843.72;;;22.53;51.35
79230;BME280;68663;49.122;17.544;2023-04-01T04:14:20;97848.47;;;22.56;51.08
79230;BME280;68663;49.122;17.544;2023-04-01T04:16:46;97845.34;;;22.54;51.51
79230;BME280;68663;49.122;17.544;2023-04-01T04:19:11;97850.28;;;22.50;51.55
79230;BME280;68663;49.122;17.544;2023-04-01T04:21:36;97849.94;;;22.48;51.91
79230;BME280;68663;49.122;17.544;2023-04-01T04:24:02;97858.06;;;22.46;52.05
79230;BME280;68663;49.122;17.544;2023-04-01T04:26:28;97852.44;;;22.46;51.88
79230;BME280;68663;49.122;17.544;2023-04-01T04:28:54;97853.56;;;22.49;51.67
79230;BME280;68663;49.122;17.544;2023-04-01T04:31:22;97850.28;;;22.50;51.44
79230;BME280;68663;49.122;17.544;2023-04-01T04:33:47;97852.63;;;22.52;51.49
79230;BME280;68663;49.122;17.544;2023-04-01T04:36:13;97855.00;;;22.53;51.38
79230;BME280;68663;49.122;17.544;2023-04-01T04:38:39;97856.47;;;22.58;51.29
79230;BME280;68663;49.122;17.544;2023-04-01T04:41:14;97854.44;;;22.59;51.38
79230;BME280;68663;49.122;17.544;2023-04-01T04:43:41;97853.19;;;22.60;51.25
79230;BME280;68663;49.122;17.544;2023-04-01T04:46:10;97859.75;;;22.56;51.41
79230;BME280;68663;49.122;17.544;2023-04-01T04:48:36;97854.91;;;22.57;51.29
79230;BME280;68663;49.122;17.544;2023-04-01T04:51:02;97853.19;;;22.60;51.26
79230;BME280;68663;49.122;17.544;2023-04-01T04:53:28;97853.53;;;22.62;51.21
79230;BME280;68663;49.122;17.544;2023-04-01T04:55:54;97854.78;;;22.61;51.69
79230;BME280;68663;49.122;17.544;2023-04-01T04:58:19;97858.50;;;22.58;51.86
79230;BME280;68663;49.122;17.544;2023-04-01T05:00:45;97858.19;;;22.55;52.15
79230;BME280;68663;49.122;17.544;2023-04-01T05:03:11;97857.81;;;22.53;52.23
79230;BME280;68663;49.122;17.544;2023-04-01T05:05:37;97855.00;;;22.53;51.87
79230;BME280;68663;49.122;17.544;2023-04-01T05:08:03;97854.13;;;22.56;51.71
79230;BME280;68663;49.122;17.544;2023-04-01T05:10:29;97855.22;;;22.59;51.74
79230;BME280;68663;49.122;17.544;2023-04-01T05:12:55;97850.72;;;22.62;55.00
79230;BME280;68663;49.122;17.544;2023-04-01T05:15:21;97852.28;;;22.63;52.32
79230;BME280;68663;49.122;17.544;2023-04-01T05:17:46;97854.00;;;22.60;52.72
79230;BME280;68663;49.122;17.544;2023-04-01T05:20:12;97848.47;;;22.56;52.76
79230;BME280;68663;49.122;17.544;2023-04-01T05:22:39;97845.34;;;22.54;52.93
79230;BME280;68663;49.122;17.544;2023-04-01T05:25:04;97846.00;;;22.59;52.40
79230;BME280;68663;49.122;17.544;2023-04-01T05:27:30;97840.38;;;22.59;52.63
79230;BME280;68663;49.122;17.544;2023-04-01T05:29:55;97841.59;;;22.58;52.85
79230;BME280;68663;49.122;17.544;2023-04-01T05:32:21;97838.09;;;22.53;52.99
79230;BME280;68663;49.122;17.544;2023-04-01T05:34:50;97840.59;;;22.51;53.03
79230;BME280;68663;49.122;17.544;2023-04-01T05:37:16;97835.88;;;22.48;53.17
79230;BME280;68663;49.122;17.544;2023-04-01T05:39:41;97841.81;;;22.50;52.54
79230;BME280;68663;49.122;17.544;2023-04-01T05:42:07;97841.81;;;22.50;52.55
79230;BME280;68663;49.122;17.544;2023-04-01T05:44:33;97842.94;;;22.53;52.38
79230;BME280;68663;49.122;17.544;2023-04-01T05:46:59;97834.41;;;22.56;52.31
79230;BME280;68663;49.122;17.544;2023-04-01T05:49:24;97840.38;;;22.59;52.36
79230;BME280;68663;49.122;17.544;2023-04-01T05:51:50;97838.22;;;22.63;52.04
79230;BME280;68663;49.122;17.544;2023-04-01T05:54:16;97840.22;;;22.62;52.16
79230;BME280;68663;49.122;17.544;2023-04-01T05:56:42;97833.16;;;22.58;52.21
79230;BME280;68663;49.122;17.544;2023-04-01T05:59:10;97848.47;;;22.56;52.38
79230;BME280;68663;49.122;17.544;2023-04-01T06:01:35;97846.53;;;22.53;52.59
79230;BME280;68663;49.122;17.544;2023-04-01T06:04:01;97849.38;;;22.53;52.52
79230;BME280;68663;49.122;17.544;2023-04-01T06:06:28;97851.63;;;22.59;52.56
79230;BME280;68663;49.122;17.544;2023-04-01T06:08:56;97855.56;;;22.61;54.59
79230;BME280;68663;49.122;17.544;2023-04-01T06:11:51;97861.97;;;22.62;54.31
79230;BME280;68663;49.122;17.544;2023-04-01T06:14:33;97865.25;;;22.60;57.99
79230;BME280;68663;49.122;17.544;2023-04-01T06:17:12;97861.66;;;22.60;59.09
79230;BME280;68663;49.122;17.544;2023-04-01T06:22:20;97866.25;;;22.53;57.19
79230;BME280;68663;49.122;17.544;2023-04-01T06:33:02;97864.47;;;22.60;54.05
79230;BME280;68663;49.122;17.544;2023-04-01T06:36:01;97860.88;;;22.59;54.10
79230;BME280;68663;49.122;17.544;2023-04-01T06:50:02;97862.56;;;22.56;53.74
79230;BME280;68663;49.122;17.544;2023-04-01T06:52:50;97874.50;;;22.61;53.47
79230;BME280;68663;49.122;17.544;2023-04-01T06:58:19;97874.38;;;22.64;53.28
79230;BME280;68663;49.122;17.544;2023-04-01T07:00:49;97874.81;;;22.63;53.27
79230;BME280;68663;49.122;17.544;2023-04-01T07:03:23;97876.97;;;22.59;53.45
79230;BME280;68663;49.122;17.544;2023-04-01T07:05:51;97876.31;;;22.54;53.44
79230;BME280;68663;49.122;17.544;2023-04-01T07:08:22;97883.16;;;22.53;53.66
79230;BME280;68663;49.122;17.544;2023-04-01T07:10:56;97877.91;;;22.55;53.24
79230;BME280;68663;49.122;17.544;2023-04-01T07:13:31;97882.63;;;22.59;53.27
79230;BME280;68663;49.122;17.544;2023-04-01T07:21:41;97893.22;;;22.54;53.40
79230;BME280;68663;49.122;17.544;2023-04-01T07:24:15;97891.97;;;22.55;53.37
79230;BME280;68663;49.122;17.544;2023-04-01T07:26:42;97907.97;;;22.59;53.23
79230;BME280;68663;49.122;17.544;2023-04-01T07:29:12;97898.28;;;22.60;53.15
79230;BME280;68663;49.122;17.544;2023-04-01T07:34:36;97904.81;;;22.56;53.35
79230;BME280;68663;49.122;17.544;2023-04-01T07:47:23;97899.19;;;22.56;53.47
79230;BME280;68663;49.122;17.544;2023-04-01T07:50:25;97896.91;;;22.51;53.54
79230;BME280;68663;49.122;17.544;2023-04-01T07:55:30;97903.78;;;22.50;53.47
79230;BME280;68663;49.122;17.544;2023-04-01T07:58:05;97911.78;;;22.52;53.02
79230;BME280;68663;49.122;17.544;2023-04-01T08:05:57;97915.19;;;22.47;53.51
79230;BME280;68663;49.122;17.544;2023-04-01T08:21:42;97910.78;;;22.46;53.42
79230;BME280;68663;49.122;17.544;2023-04-01T08:24:42;97909.66;;;22.43;53.70
79230;BME280;68663;49.122;17.544;2023-04-01T08:27:37;97910.25;;;22.38;51.44
79230;BME280;68663;49.122;17.544;2023-04-01T08:30:18;97913.41;;;22.28;48.42
79230;BME280;68663;49.122;17.544;2023-04-01T08:33:08;97914.66;;;22.14;45.34
79230;BME280;68663;49.122;17.544;2023-04-01T08:35:53;97911.28;;;22.06;43.67
79230;BME280;68663;49.122;17.544;2023-04-01T08:39:04;97918.03;;;22.09;44.63
79230;BME280;68663;49.122;17.544;2023-04-01T08:42:03;97912.53;;;22.18;45.38
79230;BME280;68663;49.122;17.544;2023-04-01T08:47:09;97913.88;;;22.26;46.18
79230;BME280;68663;49.122;17.544;2023-04-01T08:50:05;97913.75;;;22.30;46.65
79230;BME280;68663;49.122;17.544;2023-04-01T08:52:37;97906.53;;;22.29;47.04
79230;BME280;68663;49.122;17.544;2023-04-01T08:55:35;97909.69;;;22.31;47.59
79230;BME280;68663;49.122;17.544;2023-04-01T09:01:26;97893.59;;;22.31;48.47
79230;BME280;68663;49.122;17.544;2023-04-01T09:04:08;97909.69;;;22.31;49.07
79230;BME280;68663;49.122;17.544;2023-04-01T09:09:45;97918.34;;;22.36;49.09
79230;BME280;68663;49.122;17.544;2023-04-01T09:12:28;97915.19;;;22.34;49.45
79230;BME280;68663;49.122;17.544;2023-04-01T09:29:18;97919.25;;;22.33;51.60
79230;BME280;68663;49.122;17.544;2023-04-01T09:37:35;97914.88;;;22.32;51.42
79230;BME280;68663;49.122;17.544;2023-04-01T09:40:16;97922.88;;;22.34;51.15
79230;BME280;68663;49.122;17.544;2023-04-01T09:48:21;97928.03;;;22.35;51.80
79230;BME280;68663;49.122;17.544;2023-04-01T09:53:46;97934.13;;;22.34;51.74
79230;BME280;68663;49.122;17.544;2023-04-01T10:04:00;97935.59;;;22.38;51.24
79230;BME280;68663;49.122;17.544;2023-04-01T10:06:57;97941.22;;;22.38;51.28
79230;BME280;68663;49.122;17.544;2023-04-01T10:21:37;97925.22;;;22.95;60.65
79230;BME280;68663;49.122;17.544;2023-04-01T10:27:02;97923.56;;;22.85;57.03
79230;BME280;68663;49.122;17.544;2023-04-01T11:10:47;97963.44;;;22.96;55.19
79230;BME280;68663;49.122;17.544;2023-04-01T11:30:33;97939.91;;;22.90;52.78
79230;BME280;68663;49.122;17.544;2023-04-01T11:33:19;97948.69;;;22.92;53.37
79230;BME280;68663;49.122;17.544;2023-04-01T11:38:53;97955.69;;;22.87;53.50
79230;BME280;68663;49.122;17.544;2023-04-01T11:41:46;97955.69;;;22.87;55.33
79230;BME280;68663;49.122;17.544;2023-04-01T11:44:28;97967.41;;;22.86;54.31
79230;BME280;68663;49.122;17.544;2023-04-01T11:47:19;97978.03;;;22.82;53.19
79230;BME280;68663;49.122;17.544;2023-04-01T11:49:59;97976.53;;;22.77;51.45
79230;BME280;68663;49.122;17.544;2023-04-01T12:00:59;97968.91;;;22.65;50.04
79230;BME280;68663;49.122;17.544;2023-04-01T12:08:36;97969.03;;;22.62;48.56
79230;BME280;68663;49.122;17.544;2023-04-01T12:11:22;97969.47;;;22.60;47.91
79230;BME280;68663;49.122;17.544;2023-04-01T12:19:54;97968.03;;;22.55;47.94
79230;BME280;68663;49.122;17.544;2023-04-01T12:28:14;97978.94;;;22.53;47.88
79230;BME280;68663;49.122;17.544;2023-04-01T12:52:15;97957.41;;;22.47;46.66
79230;BME280;68663;49.122;17.544;2023-04-01T12:55:15;97970.38;;;22.44;46.47
79230;BME280;68663;49.122;17.544;2023-04-01T12:57:57;97955.97;;;22.42;46.59
79230;BME280;68663;49.122;17.544;2023-04-01T13:00:39;97976.00;;;22.44;47.18
79230;BME280;68663;49.122;17.544;2023-04-01T13:15:07;97960.13;;;22.50;48.45
79230;BME280;68663;49.122;17.544;2023-04-01T13:18:06;97966.53;;;22.51;48.35
79230;BME280;68663;49.122;17.544;2023-04-01T13:29:15;97966.09;;;22.52;48.94
79230;BME280;68663;49.122;17.544;2023-04-01T13:31:49;97966.53;;;22.51;49.11
79230;BME280;68663;49.122;17.544;2023-04-01T13:34:27;97964.50;;;22.51;49.14
79230;BME280;68663;49.122;17.544;2023-04-01T13:40:04;97957.19;;;22.54;49.28
79230;BME280;68663;49.122;17.544;2023-04-01T13:42:56;97961.25;;;22.53;50.68
79230;BME280;68663;49.122;17.544;2023-04-01T13:45:24;97966.09;;;22.52;51.93
79230;BME280;68663;49.122;17.544;2023-04-01T13:48:21;97972.50;;;22.53;51.65
79230;BME280;68663;49.122;17.544;2023-04-01T13:56:41;97968.22;;;22.48;52.73
79230;BME280;68663;49.122;17.544;2023-04-01T13:59:57;97969.47;;;22.47;52.06
79230;BME280;68663;49.122;17.544;2023-04-01T14:15:56;97988.63;;;22.52;53.98
79230;BME280;68663;49.122;17.544;2023-04-01T14:18:39;97980.53;;;22.54;53.66
79230;BME280;68663;49.122;17.544;2023-04-01T14:21:32;97978.50;;;22.55;53.12
79230;BME280;68663;49.122;17.544;2023-04-01T14:37:38;97978.25;;;22.62;56.06
79230;BME280;68663;49.122;17.544;2023-04-01T14:40:40;97980.28;;;22.62;56.26
79230;BME280;68663;49.122;17.544;2023-04-01T14:43:22;97974.31;;;22.60;56.51
79230;BME280;68663;49.122;17.544;2023-04-01T14:48:39;97978.84;;;22.57;55.85
79230;BME280;68663;49.122;17.544;2023-04-01T14:51:28;97976.81;;;22.58;55.93
79230;BME280;68663;49.122;17.544;2023-04-01T14:56:42;97992.13;;;22.56;55.61
79230;BME280;68663;49.122;17.544;2023-04-01T14:59:30;97989.66;;;22.59;56.01
79230;BME280;68663;49.122;17.544;2023-04-01T15:08:00;97986.94;;;22.55;55.32
79230;BME280;68663;49.122;17.544;2023-04-01T15:21:02;97973.28;;;22.53;55.00
79230;BME280;68663;49.122;17.544;2023-04-01T15:26:20;97981.41;;;22.51;54.83
79230;BME280;68663;49.122;17.544;2023-04-01T15:29:14;97973.28;;;22.53;54.24
79230;BME280;68663;49.122;17.544;2023-04-01T15:37:20;97972.41;;;22.56;55.25
79230;BME280;68663;49.122;17.544;2023-04-01T15:47:33;97972.41;;;22.56;53.62
79230;BME280;68663;49.122;17.544;2023-04-01T15:50:24;97975.56;;;22.59;53.39
79230;BME280;68663;49.122;17.544;2023-04-01T15:55:37;97972.41;;;22.56;53.31
79230;BME280;68663;49.122;17.544;2023-04-01T15:58:29;97973.66;;;22.55;53.70
79230;BME280;68663;49.122;17.544;2023-04-01T16:07:03;97986.94;;;22.55;53.16
79230;BME280;68663;49.122;17.544;2023-04-01T16:09:29;97984.56;;;22.53;52.80
79230;BME280;68663;49.122;17.544;2023-04-01T16:17:58;97985.47;;;22.50;53.04
79230;BME280;68663;49.122;17.544;2023-04-01T16:20:43;97987.03;;;22.51;52.86
79230;BME280;68663;49.122;17.544;2023-04-01T16:29:38;97986.25;;;22.51;54.80
79230;BME280;68663;49.122;17.544;2023-04-01T16:31:55;97998.31;;;22.51;54.45
79230;BME280;68663;49.122;17.544;2023-04-01T16:34:34;97997.06;;;22.52;53.97
79230;BME280;68663;49.122;17.544;2023-04-01T16:48:10;98008.59;;;22.58;52.84
79230;BME280;68663;49.122;17.544;2023-04-01T16:50:48;98008.13;;;22.60;52.99
79230;BME280;68663;49.122;17.544;2023-04-01T16:53:31;98001.25;;;22.61;53.12
79230;BME280;68663;49.122;17.544;2023-04-01T16:58:33;98013.31;;;22.61;53.56
79230;BME280;68663;49.122;17.544;2023-04-01T17:01:07;98016.59;;;22.60;53.43
79230;BME280;68663;49.122;17.544;2023-04-01T17:03:50;98017.94;;;22.55;53.59
79230;BME280;68663;49.122;17.544;2023-04-01T17:06:38;98024.00;;;22.53;53.60
79230;BME280;68663;49.122;17.544;2023-04-01T17:09:32;98018.34;;;22.53;53.27
79230;BME280;68663;49.122;17.544;2023-04-01T17:13:00;98020.75;;;22.55;53.38
79230;BME280;68663;49.122;17.544;2023-04-01T17:15:21;98023.56;;;22.55;53.28
79230;BME280;68663;49.122;17.544;2023-04-01T17:17:54;98026.03;;;22.53;53.29
79230;BME280;68663;49.122;17.544;2023-04-01T17:20:26;98027.25;;;22.52;53.13
79230;BME280;68663;49.122;17.544;2023-04-01T17:22:55;98031.66;;;22.53;52.94
79230;BME280;68663;49.122;17.544;2023-04-01T17:25:33;98034.06;;;22.54;52.96
79230;BME280;68663;49.122;17.544;2023-04-01T17:28:24;98038.44;;;22.55;53.21
79230;BME280;68663;49.122;17.544;2023-04-01T17:31:10;98052.53;;;22.55;52.90
79230;BME280;68663;49.122;17.544;2023-04-01T17:41:42;98054.19;;;22.53;52.74
79230;BME280;68663;49.122;17.544;2023-04-01T17:44:18;98057.00;;;22.53;52.76
79230;BME280;68663;49.122;17.544;2023-04-01T18:00:45;98078.84;;;22.49;53.23
79230;BME280;68663;49.122;17.544;2023-04-01T18:09:09;98098.25;;;22.47;52.98
79230;BME280;68663;49.122;17.544;2023-04-01T18:22:43;98107.03;;;22.49;52.75
79230;BME280;68663;49.122;17.544;2023-04-01T18:30:32;98117.38;;;22.52;52.77
79230;BME280;68663;49.122;17.544;2023-04-01T18:33:02;98127.97;;;22.48;52.93
79230;BME280;68663;49.122;17.544;2023-04-01T18:38:15;98129.66;;;22.45;52.70
79230;BME280;68663;49.122;17.544;2023-04-01T18:48:50;98127.28;;;22.44;53.01
79230;BME280;68663;49.122;17.544;2023-04-01T18:51:33;98132.16;;;22.43;52.86
79230;BME280;68663;49.122;17.544;2023-04-01T18:54:06;98133.38;;;22.42;52.94
79230;BME280;68663;49.122;17.544;2023-04-01T18:56:37;98127.63;;;22.33;50.17
79230;BME280;68663;49.122;17.544;2023-04-01T18:59:25;98133.47;;;22.26;45.52
79230;BME280;68663;49.122;17.544;2023-04-01T19:02:31;98126.81;;;22.20;44.00
79230;BME280;68663;49.122;17.544;2023-04-01T19:05:17;98139.41;;;22.15;42.96
79230;BME280;68663;49.122;17.544;2023-04-01T19:07:54;98139.50;;;22.12;41.48
79230;BME280;68663;49.122;17.544;2023-04-01T19:10:35;98146.94;;;22.06;40.49
79230;BME280;68663;49.122;17.544;2023-04-01T19:20:57;98147.00;;;22.02;45.14
79230;BME280;68663;49.122;17.544;2023-04-01T19:23:39;98152.56;;;22.06;47.55
79230;BME280;68663;49.122;17.544;2023-04-01T19:26:21;98158.09;;;22.09;47.89
79230;BME280;68663;49.122;17.544;2023-04-01T19:31:49;98165.19;;;22.14;47.46
79230;BME280;68663;49.122;17.544;2023-04-01T19:34:39;98169.69;;;22.11;47.54
79230;BME280;68663;49.122;17.544;2023-04-01T19:45:46;98198.41;;;22.19;48.49
79230;BME280;68663;49.122;17.544;2023-04-01T19:51:19;98197.28;;;22.16;49.81
79230;BME280;68663;49.122;17.544;2023-04-01T19:56:22;98204.84;;;22.19;49.65
79230;BME280;68663;49.122;17.544;2023-04-01T20:01:33;98213.63;;;22.21;50.03
79230;BME280;68663;49.122;17.544;2023-04-01T20:04:09;98214.09;;;22.20;49.97
79230;BME280;68663;49.122;17.544;2023-04-01T20:12:20;98216.44;;;22.21;50.51
79230;BME280;68663;49.122;17.544;2023-04-01T20:14:54;98222.88;;;22.22;50.69
79230;BME280;68663;49.122;17.544;2023-04-01T20:20:18;98213.38;;;22.16;50.57
79230;BME280;68663;49.122;17.544;2023-04-01T20:27:58;98215.75;;;22.17;50.63
79230;BME280;68663;49.122;17.544;2023-04-01T20:39:18;98225.00;;;22.18;50.99
79230;BME280;68663;49.122;17.544;2023-04-01T20:41:55;98226.91;;;22.21;50.88
79230;BME280;68663;49.122;17.544;2023-04-01T20:47:17;98221.28;;;22.21;50.87
79230;BME280;68663;49.122;17.544;2023-04-01T20:50:00;98221.28;;;22.21;51.06
79230;BME280;68663;49.122;17.544;2023-04-01T20:52:41;98223.31;;;22.20;51.13
79230;BME280;68663;49.122;17.544;2023-04-01T21:11:16;98237.97;;;22.28;51.44
79230;BME280;68663;49.122;17.544;2023-04-01T21:16:51;98244.41;;;22.29;51.38
79230;BME280;68663;49.122;17.544;2023-04-01T21:36:08;98254.88;;;22.28;51.98
79230;BME280;68663;49.122;17.544;2023-04-01T21:38:59;98259.28;;;22.29;51.82
79230;BME280;68663;49.122;17.544;2023-04-01T21:55:37;98253.88;;;22.35;51.67
79230;BME280;68663;49.122;17.544;2023-04-01T21:58:20;98255.81;;;22.38;51.59
79230;BME280;68663;49.122;17.544;2023-04-01T22:06:26;98262.78;;;22.33;52.16
79230;BME280;68663;49.122;17.544;2023-04-01T22:09:38;98257.16;;;22.33;51.80
79230;BME280;68663;49.122;17.544;2023-04-01T22:12:01;98264.72;;;22.36;51.68
79230;BME280;68663;49.122;17.544;2023-04-01T22:17:45;98272.38;;;22.36;51.83
79230;BME280;68663;49.122;17.544;2023-04-01T22:20:16;98275.63;;;22.34;52.02
79230;BME280;68663;49.122;17.544;2023-04-01T22:28:38;98277.09;;;22.39;51.74
79230;BME280;68663;49.122;17.544;2023-04-01T22:31:10;98272.25;;;22.39;51.85
79230;BME280;68663;49.122;17.544;2023-04-01T22:49:47;98284.41;;;22.36;52.04
79230;BME280;68663;49.122;17.544;2023-04-01T22:52:23;98284.06;;;22.34;51.95
79230;BME280;68663;49.122;17.544;2023-04-01T22:54:55;98284.41;;;22.36;51.75